Portada
METAR-TAF:

METAR-TAF

Aeroports :

Malindi, Kenya

latitud: 03-14S, longitud: 040-06E, altitud: 20 m

Observació

L'informe es va fer fa 45 minuts, a les 20:00 UTC
Vent 8 kt del Sud
Temperatura 24°C
Humitat 78%
Pressió 1016 hPa
Visibilitat 10 km o més
Escasses núvols a una alçada de 2000 ft

METAR: HKML 012000Z 18008KT 9999 FEW020 24/20 Q1016

Hora: 23:45 (20:45 UTC)

Pronòstic

L'informe es va fer fa 3 hores i 45 minuts, a les 17:00 UTC
Pronòstic vàlid del 01 a les 18 UTC al 02 a les 18 UTC
Vent 10 kt del Sud
Visibilitat 10 km o més
Escasses núvols a una alçada de 2200 ft
Evolucionant progressivament
l' 02 a les 00 UTC al 02 a les 03 UTC
Vent kt del Nord
Escasses núvols a una alçada de 1900 ft
Evolucionant progressivament
l' 02 a les 09 UTC al 02 a les 12 UTC
Vent 20 kt del Sud
Núvols disperses a una alçada de 2300 ft

TAF: HKML 011700Z 0118/0218 18010KT 9999 FEW022 BECMG 0200/0203 00000KT FEW019 BECMG 0209/0212 18020KT SCT023

Observacions i pronòstics meteorològics de més de 4000 aeroports (METAR i TAF).

Les estacions disponibles són els punts grocs i vermells al mapa.

Posi el ratolí al punt desitjat per veure el nom de l'estació.

Feu clic per veure les observacions i els pronòstics meteorològics.

Per canviar el mapa: feu clic els botons verds amb una creu de color negre per apropar; al botó verd amb un guió per allunyar la imatge; o en les fletxes verdes per a mapes adjacents.


METAR-TAF: